Terminal Aerodrome Forecast
Issued by NWS

Home | Current Version | Previous Version | Text Only | Print | Product List | Glossary On
Versions: 1 2 3 4 5 6 7 8 9 10 11 12 13 14 15 16 17 18 19 20
796
FTUS41 KPBZ 111120
TAFLBE
TAF
KLBE 111120Z 1112/1212 25013KT P6SM VCSH BKN024 OVC070
     FM111300 29010G20KT 6SM -SHSN OVC024
      TEMPO 1113/1115 2SM -SHSN BKN016
     FM120200 28007KT P6SM SCT035=

USA.gov is the U.S. government's official web portal to all federal, state and local government web resources and services.